Kathy C — 2CTI7 — position and weather

sailwx.info

Track history (hours):
 
Tides and Currents Weather Stations Pressure Air Temp Water Temp Dewpoint Dewpoint Depression Visibility Wind Speed Wind Dir Waves Ship Positions

Kathy C

Last reported at 2014-Sep-16 16:33 UTC. Time now 2014-Sep-16 17:35 UTC.
Position N 53°53' E 009°07'.

Length 106 m; draft 4.4 m.

Type: Cargo ship. MMSI: 235075591.

Date/timePositionNaut miles runAvg speedWind from/ knotsBaromVisibWave heightAir tempDewpointWater temp
2014-Sep-16 16:33N 53°53' E 009°07'1111.5
2014-Sep-16 15:34N 53°50' E 008°48'1211.9
2014-Sep-16 14:33N 53°58' E 008°33'1312.9
2014-Sep-16 13:33N 53°60' E 008°11'10 9.7
2014-Sep-16 12:33N 53°56' E 007°55'4 1.6
2014-Sep-16 10:18N 53°53' E 007°52'0 0.0
2014-Sep-16 09:06N 53°54' E 007°52'0 0.0
2014-Sep-16 08:18N 53°54' E 007°52'0 0.0
2014-Sep-16 06:27N 53°54' E 007°52'0 0.0
2014-Sep-16 05:30N 53°54' E 007°52'0 0.0
2014-Sep-16 04:33N 53°53' E 007°52'0 0.0
2014-Sep-16 03:27N 53°54' E 007°52'0 0.0
2014-Sep-16 02:24N 53°54' E 007°52'0 0.0
2014-Sep-15 20:18N 53°54' E 007°52'0 0.0
2014-Sep-15 19:24N 53°54' E 007°52'0 0.0
2014-Sep-15 18:30N 53°54' E 007°52'0 0.0
2014-Sep-15 17:30N 53°54' E 007°52'0 0.0
2014-Sep-15 16:24N 53°53' E 007°52'0 0.0
2014-Sep-15 13:15N 53°53' E 007°52'0 0.0
2014-Sep-15 10:33N 53°53' E 007°52'0 0.1
2014-Sep-15 09:30N 53°53' E 007°52'0 0.0
2014-Sep-15 08:33N 53°53' E 007°52'0 0.0
2014-Sep-15 07:30N 53°53' E 007°52'0 0.0
2014-Sep-15 06:30N 53°54' E 007°52'0 0.0
2014-Sep-15 05:33N 53°54' E 007°52'0 0.0
2014-Sep-15 04:30N 53°53' E 007°52'0 0.0
2014-Sep-15 03:27N 53°53' E 007°52'0 0.0
2014-Sep-14 22:18N 53°53' E 007°52'0 0.0
2014-Sep-14 21:21N 53°53' E 007°52'0 0.0
2014-Sep-14 20:06N 53°53' E 007°52'0 0.0
2014-Sep-14 19:06N 53°53' E 007°52'0 0.0
2014-Sep-14 18:30N 53°53' E 007°52'0 0.0
2014-Sep-14 17:30N 53°53' E 007°52'0 0.0
2014-Sep-14 16:33N 53°53' E 007°52'0 0.1
2014-Sep-14 15:30N 53°53' E 007°52'0 0.0
2014-Sep-14 09:24N 53°53' E 007°52'0 0.0
2014-Sep-13 17:09N 53°53' E 007°52'0 0.0
2014-Sep-13 16:27N 53°53' E 007°52'0 0.0
2014-Sep-13 15:30N 53°53' E 007°52'0 0.0
2014-Sep-13 14:27N 53°53' E 007°52'0 0.0
2014-Sep-13 03:24N 53°53' E 007°52'0 0.0
2014-Sep-12 19:12N 53°53' E 007°52'3 4.0
2014-Sep-12 18:33N 53°52' E 007°55'1313.1
2014-Sep-12 17:34N 53°45' E 008°14'1413.7
2014-Sep-12 16:33N 53°36' E 008°31'7 7.2
2014-Sep-12 15:33N 53°28' E 008°30'8 6.6
2014-Sep-12 14:20N 53°20' E 008°30'0 0.0
2014-Sep-12 13:29N 53°20' E 008°30'0 0.0
2014-Sep-12 12:29N 53°20' E 008°30'0 0.0
2014-Sep-12 11:29N 53°20' E 008°30'0 0.0
2014-Sep-12 10:32N 53°20' E 008°30'0 0.0
2014-Sep-12 09:29N 53°20' E 008°30'0 0.0
2014-Sep-12 08:32N 53°20' E 008°30'0 0.0
2014-Sep-12 07:17N 53°20' E 008°30'0 0.0
2014-Sep-12 06:29N 53°20' E 008°30'0 0.0
2014-Sep-12 05:23N 53°20' E 008°30'0 0.0
2014-Sep-12 04:23N 53°20' E 008°30'0 0.0
2014-Sep-12 03:32N 53°20' E 008°30'0 0.0
2014-Sep-12 02:17N 53°20' E 008°30'0 0.0
2014-Sep-12 01:26N 53°20' E 008°30'0 0.0
2014-Sep-12 00:29N 53°20' E 008°30'0 0.0
2014-Sep-11 23:32N 53°20' E 008°30'0 0.0
2014-Sep-11 17:32N 53°20' E 008°30'0 0.0
2014-Sep-11 16:20N 53°20' E 008°30'0 0.0
2014-Sep-11 15:32N 53°20' E 008°30'0 0.0
2014-Sep-11 14:26N 53°20' E 008°30'0 0.0
2014-Sep-11 13:32N 53°20' E 008°30'0 0.0
2014-Sep-11 12:32N 53°20' E 008°30'0 0.0
2014-Sep-11 11:32N 53°20' E 008°30'0 0.0
2014-Sep-11 10:26N 53°20' E 008°30'0 0.0
2014-Sep-11 09:29N 53°20' E 008°30'0 0.0
2014-Sep-11 06:23N 53°20' E 008°30'0 0.0
2014-Sep-11 00:17N 53°20' E 008°30'0 0.0
2014-Sep-10 22:14N 53°20' E 008°30'0 0.0
2014-Sep-10 16:20N 53°20' E 008°30'0 0.0
2014-Sep-10 13:20N 53°20' E 008°30'0 0.0
2014-Sep-10 12:26N 53°20' E 008°30'0 0.0
2014-Sep-10 11:32N 53°20' E 008°30'0 0.0
2014-Sep-10 10:26N 53°20' E 008°30'0 0.0
2014-Sep-10 09:26N 53°20' E 008°30'0 0.0
2014-Sep-10 08:08N 53°20' E 008°30'0 0.0
2014-Sep-10 06:32N 53°20' E 008°30'0 0.0
2014-Sep-10 05:32N 53°20' E 008°30'0 0.0
2014-Sep-10 04:32N 53°20' E 008°30'0 0.0
2014-Sep-10 03:05N 53°20' E 008°30'0 0.0
2014-Sep-10 02:29N 53°20' E 008°30'0 0.0
2014-Sep-10 01:20N 53°20' E 008°30'0 0.0
2014-Sep-10 00:32N 53°20' E 008°30'0 0.0
2014-Sep-09 23:32N 53°20' E 008°30'0 0.0
2014-Sep-09 22:32N 53°20' E 008°30'0 0.0
2014-Sep-09 21:32N 53°20' E 008°30'0 0.0
2014-Sep-09 20:32N 53°20' E 008°30'0 0.0
2014-Sep-09 18:14N 53°20' E 008°30'0 0.0
2014-Sep-09 17:29N 53°20' E 008°30'0 0.0
2014-Sep-09 16:29N 53°20' E 008°30'0 0.0
2014-Sep-09 15:32N 53°20' E 008°30'0 0.0
2014-Sep-09 14:23N 53°20' E 008°30'0 0.0
2014-Sep-09 13:29N 53°20' E 008°30'0 0.0
2014-Sep-09 11:05N 53°20' E 008°30'0 0.0
2014-Sep-09 10:32N 53°20' E 008°30'0 0.0
2014-Sep-09 09:32N 53°20' E 008°30'0 0.0
2014-Sep-09 08:26N 53°20' E 008°30'0 0.0
2014-Sep-09 04:05N 53°20' E 008°30'0 0.0
2014-Sep-09 03:29N 53°20' E 008°30'0 0.0
2014-Sep-09 02:29N 53°20' E 008°30'0 0.0
2014-Sep-08 23:08N 53°20' E 008°30'0 0.0
2014-Sep-08 21:32N 53°20' E 008°30'0 0.0
2014-Sep-08 19:32N 53°20' E 008°30'0 0.0
2014-Sep-08 18:32N 53°20' E 008°30'0 0.0
2014-Sep-08 15:29N 53°20' E 008°30'0 0.0
2014-Sep-08 14:23N 53°20' E 008°30'0 0.0
2014-Sep-08 13:29N 53°20' E 008°30'0 0.0
2014-Sep-08 11:14N 53°20' E 008°30'0 0.0
2014-Sep-08 09:23N 53°20' E 008°30'0 0.0
2014-Sep-08 08:26N 53°20' E 008°30'0 0.0
2014-Sep-08 07:29N 53°20' E 008°30'0 0.0
2014-Sep-08 06:32N 53°20' E 008°30'0 0.0
2014-Sep-08 05:32N 53°20' E 008°30'0 0.0
2014-Sep-08 04:32N 53°20' E 008°30'0 0.0
2014-Sep-08 03:32N 53°20' E 008°30'0 0.0
2014-Sep-08 02:23N 53°20' E 008°30'0 0.0
2014-Sep-08 01:20N 53°20' E 008°30'0 0.0
2014-Sep-08 00:23N 53°20' E 008°30'0 0.0
2014-Sep-07 23:32N 53°20' E 008°30'0 0.0
2014-Sep-07 21:32N 53°20' E 008°30'0 0.0
2014-Sep-07 20:32N 53°20' E 008°30'0 0.0
2014-Sep-07 19:32N 53°20' E 008°30'0 0.0
2014-Sep-07 18:32N 53°20' E 008°30'0 0.0
2014-Sep-07 17:11N 53°20' E 008°30'0 0.0
2014-Sep-07 16:29N 53°20' E 008°30'0 0.0
2014-Sep-07 15:32N 53°20' E 008°30'0 0.0
2014-Sep-07 14:32N 53°20' E 008°30'0 0.0
2014-Sep-07 13:29N 53°20' E 008°30'0 0.0
2014-Sep-07 12:29N 53°20' E 008°30'0 0.0
2014-Sep-07 11:29N 53°20' E 008°30'0 0.0
2014-Sep-07 10:32N 53°20' E 008°30'0 0.0
2014-Sep-07 09:32N 53°20' E 008°30'0 0.0
2014-Sep-07 08:29N 53°20' E 008°30'0 0.0
2014-Sep-07 07:32N 53°20' E 008°30'0 0.0
2014-Sep-07 06:32N 53°20' E 008°30'0 0.0
2014-Sep-07 05:32N 53°20' E 008°30'0 0.0
2014-Sep-07 04:32N 53°20' E 008°30'0 0.0
2014-Sep-07 03:26N 53°20' E 008°30'0 0.0
2014-Sep-07 02:29N 53°20' E 008°30'0 0.0
2014-Sep-07 01:32N 53°20' E 008°30'0 0.0
2014-Sep-07 00:29N 53°20' E 008°30'0 0.0
2014-Sep-06 23:20N 53°20' E 008°30'0 0.0
2014-Sep-06 22:32N 53°20' E 008°30'0 0.0
2014-Sep-06 21:32N 53°20' E 008°30'0 0.0
2014-Sep-06 20:14N 53°20' E 008°30'0 0.0
2014-Sep-06 19:32N 53°20' E 008°30'0 0.0
2014-Sep-06 18:29N 53°20' E 008°30'0 0.0
2014-Sep-06 17:29N 53°20' E 008°30'  
Track history (hours):
 
Tides and Currents Weather Stations Pressure Air Temp Water Temp Dewpoint Dewpoint Depression Visibility Wind Speed Wind Dir Waves Ship Positions

Kathy C

Last reported at 2014-Sep-16 16:33 UTC. Time now 2014-Sep-16 17:35 UTC.
Position N 53°53' E 009°07'.

Length 106 m; draft 4.4 m.

Type: Cargo ship. MMSI: 235075591.

Date/timePositionNaut miles runAvg speedWind from/ knotsBaromVisibWave heightAir tempDewpointWater temp
2014-Sep-16 16:33N 53°53' E 009°07'1111.5
2014-Sep-16 15:34N 53°50' E 008°48'1211.9
2014-Sep-16 14:33N 53°58' E 008°33'1312.9
2014-Sep-16 13:33N 53°60' E 008°11'10 9.7
2014-Sep-16 12:33N 53°56' E 007°55'4 1.6
2014-Sep-16 10:18N 53°53' E 007°52'0 0.0
2014-Sep-16 09:06N 53°54' E 007°52'0 0.0
2014-Sep-16 08:18N 53°54' E 007°52'0 0.0
2014-Sep-16 06:27N 53°54' E 007°52'0 0.0
2014-Sep-16 05:30N 53°54' E 007°52'0 0.0
2014-Sep-16 04:33N 53°53' E 007°52'0 0.0
2014-Sep-16 03:27N 53°54' E 007°52'0 0.0
2014-Sep-16 02:24N 53°54' E 007°52'0 0.0
2014-Sep-15 20:18N 53°54' E 007°52'0 0.0
2014-Sep-15 19:24N 53°54' E 007°52'0 0.0
2014-Sep-15 18:30N 53°54' E 007°52'0 0.0
2014-Sep-15 17:30N 53°54' E 007°52'0 0.0
2014-Sep-15 16:24N 53°53' E 007°52'0 0.0
2014-Sep-15 13:15N 53°53' E 007°52'0 0.0
2014-Sep-15 10:33N 53°53' E 007°52'0 0.1
2014-Sep-15 09:30N 53°53' E 007°52'0 0.0
2014-Sep-15 08:33N 53°53' E 007°52'0 0.0
2014-Sep-15 07:30N 53°53' E 007°52'0 0.0
2014-Sep-15 06:30N 53°54' E 007°52'0 0.0
2014-Sep-15 05:33N 53°54' E 007°52'0 0.0
2014-Sep-15 04:30N 53°53' E 007°52'0 0.0
2014-Sep-15 03:27N 53°53' E 007°52'0 0.0
2014-Sep-14 22:18N 53°53' E 007°52'0 0.0
2014-Sep-14 21:21N 53°53' E 007°52'0 0.0
2014-Sep-14 20:06N 53°53' E 007°52'0 0.0
2014-Sep-14 19:06N 53°53' E 007°52'0 0.0
2014-Sep-14 18:30N 53°53' E 007°52'0 0.0
2014-Sep-14 17:30N 53°53' E 007°52'0 0.0
2014-Sep-14 16:33N 53°53' E 007°52'0 0.1
2014-Sep-14 15:30N 53°53' E 007°52'0 0.0
2014-Sep-14 09:24N 53°53' E 007°52'0 0.0
2014-Sep-13 17:09N 53°53' E 007°52'0 0.0
2014-Sep-13 16:27N 53°53' E 007°52'0 0.0
2014-Sep-13 15:30N 53°53' E 007°52'0 0.0
2014-Sep-13 14:27N 53°53' E 007°52'0 0.0
2014-Sep-13 03:24N 53°53' E 007°52'0 0.0
2014-Sep-12 19:12N 53°53' E 007°52'3 4.0
2014-Sep-12 18:33N 53°52' E 007°55'1313.1
2014-Sep-12 17:34N 53°45' E 008°14'1413.7
2014-Sep-12 16:33N 53°36' E 008°31'7 7.2
2014-Sep-12 15:33N 53°28' E 008°30'8 6.6
2014-Sep-12 14:20N 53°20' E 008°30'0 0.0
2014-Sep-12 13:29N 53°20' E 008°30'0 0.0
2014-Sep-12 12:29N 53°20' E 008°30'0 0.0
2014-Sep-12 11:29N 53°20' E 008°30'0 0.0
2014-Sep-12 10:32N 53°20' E 008°30'0 0.0
2014-Sep-12 09:29N 53°20' E 008°30'0 0.0
2014-Sep-12 08:32N 53°20' E 008°30'0 0.0
2014-Sep-12 07:17N 53°20' E 008°30'0 0.0
2014-Sep-12 06:29N 53°20' E 008°30'0 0.0
2014-Sep-12 05:23N 53°20' E 008°30'0 0.0
2014-Sep-12 04:23N 53°20' E 008°30'0 0.0
2014-Sep-12 03:32N 53°20' E 008°30'0 0.0
2014-Sep-12 02:17N 53°20' E 008°30'0 0.0
2014-Sep-12 01:26N 53°20' E 008°30'0 0.0
2014-Sep-12 00:29N 53°20' E 008°30'0 0.0
2014-Sep-11 23:32N 53°20' E 008°30'0 0.0
2014-Sep-11 17:32N 53°20' E 008°30'0 0.0
2014-Sep-11 16:20N 53°20' E 008°30'0 0.0
2014-Sep-11 15:32N 53°20' E 008°30'0 0.0
2014-Sep-11 14:26N 53°20' E 008°30'0 0.0
2014-Sep-11 13:32N 53°20' E 008°30'0 0.0
2014-Sep-11 12:32N 53°20' E 008°30'0 0.0
2014-Sep-11 11:32N 53°20' E 008°30'0 0.0
2014-Sep-11 10:26N 53°20' E 008°30'0 0.0
2014-Sep-11 09:29N 53°20' E 008°30'0 0.0
2014-Sep-11 06:23N 53°20' E 008°30'0 0.0
2014-Sep-11 00:17N 53°20' E 008°30'0 0.0
2014-Sep-10 22:14N 53°20' E 008°30'0 0.0
2014-Sep-10 16:20N 53°20' E 008°30'0 0.0
2014-Sep-10 13:20N 53°20' E 008°30'0 0.0
2014-Sep-10 12:26N 53°20' E 008°30'0 0.0
2014-Sep-10 11:32N 53°20' E 008°30'0 0.0
2014-Sep-10 10:26N 53°20' E 008°30'0 0.0
2014-Sep-10 09:26N 53°20' E 008°30'0 0.0
2014-Sep-10 08:08N 53°20' E 008°30'0 0.0
2014-Sep-10 06:32N 53°20' E 008°30'0 0.0
2014-Sep-10 05:32N 53°20' E 008°30'0 0.0
2014-Sep-10 04:32N 53°20' E 008°30'0 0.0
2014-Sep-10 03:05N 53°20' E 008°30'0 0.0
2014-Sep-10 02:29N 53°20' E 008°30'0 0.0
2014-Sep-10 01:20N 53°20' E 008°30'0 0.0
2014-Sep-10 00:32N 53°20' E 008°30'0 0.0
2014-Sep-09 23:32N 53°20' E 008°30'0 0.0
2014-Sep-09 22:32N 53°20' E 008°30'0 0.0
2014-Sep-09 21:32N 53°20' E 008°30'0 0.0
2014-Sep-09 20:32N 53°20' E 008°30'0 0.0
2014-Sep-09 18:14N 53°20' E 008°30'0 0.0
2014-Sep-09 17:29N 53°20' E 008°30'0 0.0
2014-Sep-09 16:29N 53°20' E 008°30'0 0.0
2014-Sep-09 15:32N 53°20' E 008°30'0 0.0
2014-Sep-09 14:23N 53°20' E 008°30'0 0.0
2014-Sep-09 13:29N 53°20' E 008°30'0 0.0
2014-Sep-09 11:05N 53°20' E 008°30'0 0.0
2014-Sep-09 10:32N 53°20' E 008°30'0 0.0
2014-Sep-09 09:32N 53°20' E 008°30'0 0.0
2014-Sep-09 08:26N 53°20' E 008°30'0 0.0
2014-Sep-09 04:05N 53°20' E 008°30'0 0.0
2014-Sep-09 03:29N 53°20' E 008°30'0 0.0
2014-Sep-09 02:29N 53°20' E 008°30'0 0.0
2014-Sep-08 23:08N 53°20' E 008°30'0 0.0
2014-Sep-08 21:32N 53°20' E 008°30'0 0.0
2014-Sep-08 19:32N 53°20' E 008°30'0 0.0
2014-Sep-08 18:32N 53°20' E 008°30'0 0.0
2014-Sep-08 15:29N 53°20' E 008°30'0 0.0
2014-Sep-08 14:23N 53°20' E 008°30'0 0.0
2014-Sep-08 13:29N 53°20' E 008°30'0 0.0
2014-Sep-08 11:14N 53°20' E 008°30'0 0.0
2014-Sep-08 09:23N 53°20' E 008°30'0 0.0
2014-Sep-08 08:26N 53°20' E 008°30'0 0.0
2014-Sep-08 07:29N 53°20' E 008°30'0 0.0
2014-Sep-08 06:32N 53°20' E 008°30'0 0.0
2014-Sep-08 05:32N 53°20' E 008°30'0 0.0
2014-Sep-08 04:32N 53°20' E 008°30'0 0.0
2014-Sep-08 03:32N 53°20' E 008°30'0 0.0
2014-Sep-08 02:23N 53°20' E 008°30'0 0.0
2014-Sep-08 01:20N 53°20' E 008°30'0 0.0
2014-Sep-08 00:23N 53°20' E 008°30'0 0.0
2014-Sep-07 23:32N 53°20' E 008°30'0 0.0
2014-Sep-07 21:32N 53°20' E 008°30'0 0.0
2014-Sep-07 20:32N 53°20' E 008°30'0 0.0
2014-Sep-07 19:32N 53°20' E 008°30'0 0.0
2014-Sep-07 18:32N 53°20' E 008°30'0 0.0
2014-Sep-07 17:11N 53°20' E 008°30'0 0.0
2014-Sep-07 16:29N 53°20' E 008°30'0 0.0
2014-Sep-07 15:32N 53°20' E 008°30'0 0.0
2014-Sep-07 14:32N 53°20' E 008°30'0 0.0
2014-Sep-07 13:29N 53°20' E 008°30'0 0.0
2014-Sep-07 12:29N 53°20' E 008°30'0 0.0
2014-Sep-07 11:29N 53°20' E 008°30'0 0.0
2014-Sep-07 10:32N 53°20' E 008°30'0 0.0
2014-Sep-07 09:32N 53°20' E 008°30'0 0.0
2014-Sep-07 08:29N 53°20' E 008°30'0 0.0
2014-Sep-07 07:32N 53°20' E 008°30'0 0.0
2014-Sep-07 06:32N 53°20' E 008°30'0 0.0
2014-Sep-07 05:32N 53°20' E 008°30'0 0.0
2014-Sep-07 04:32N 53°20' E 008°30'0 0.0
2014-Sep-07 03:26N 53°20' E 008°30'0 0.0
2014-Sep-07 02:29N 53°20' E 008°30'0 0.0
2014-Sep-07 01:32N 53°20' E 008°30'0 0.0
2014-Sep-07 00:29N 53°20' E 008°30'0 0.0
2014-Sep-06 23:20N 53°20' E 008°30'0 0.0
2014-Sep-06 22:32N 53°20' E 008°30'0 0.0
2014-Sep-06 21:32N 53°20' E 008°30'0 0.0
2014-Sep-06 20:14N 53°20' E 008°30'0 0.0
2014-Sep-06 19:32N 53°20' E 008°30'0 0.0
2014-Sep-06 18:29N 53°20' E 008°30'0 0.0
2014-Sep-06 17:29N 53°20' E 008°30'  

Dump ship's entire track history